Accueil
METAR-TAF:

METAR-TAF

Aéroports :

Aéroport de Vágar

Sørvágur, Îles Féroé, Danemark

latitude: 62-04N, longitude: 007-17W, altitude: 85 m

Observation

Le bulletin a été fait il y a 35 minutes, à 18:20 UTC
Vent 14 kt de ouest
Température 7°C
Humidité 76%
Pression 1017 hPa
Visibilité 10 km ou plus

METAR: EKVG 261820Z AUTO 27014KT 9999NDV OVC024/// 07/03 Q1017 RMK OVC023/// WIND SKEID 29025KT

Heure: 19:55 (18:55 UTC)

Prévision

Le bulletin a été fait il y a 4 heures et 54 minutes, à 14:01 UTC
Prévision valable du 26 à 15 UTC au 26 à 21 UTC
Vent 25 kt de ouest
Visibilité 10 km ou plus
Nuages fragmentés à une hauteur de 2000 ft
Evoluant progressivement
du 26 à 15 UTC au 26 à 18 UTC
Vent 15 kt de ouest

TAF: EKVG 261401Z 2615/2621 27025KT 9999 BKN020 BECMG 2615/2618 27015KT

Observations et prévisions météorologiques de plus de 4000 aéroports (messages METAR et TAF).

Les stations disponibles sont représentées par des disques jaunes et rouges sur la carte.

Passer la souris dessus pour voir le nom de la station.

Cliquer dessus pour voir les observations et prévisions météorologiques.

Pour changer de carte: cliquez sur les boutons verts avec une croix noire pour zoomer, sur le bouton vert avec un tiret pour effectuer un zoom arrière, ou sur les flèches vertes pour les cartes adjacentes.


METAR-TAF: